createdAt,value
2017-12-15T00:00:24.609Z,75.20
2017-12-15T00:02:52.216Z,74.70
2017-12-15T00:05:19.739Z,74.50
2017-12-15T00:07:47.226Z,74.90
2017-12-15T00:10:15.549Z,75.80
2017-12-15T00:12:43.082Z,75.70
2017-12-15T00:15:10.574Z,75.70
2017-12-15T00:17:38.058Z,76.00
2017-12-15T00:20:05.579Z,76.00
2017-12-15T00:22:33.069Z,75.50
2017-12-15T00:25:00.593Z,75.70
2017-12-15T00:27:28.063Z,75.10
2017-12-15T00:29:55.590Z,75.50
2017-12-15T00:32:23.078Z,75.40
2017-12-15T00:34:50.571Z,75.70
2017-12-15T00:37:18.092Z,75.40
2017-12-15T00:39:46.338Z,75.10
2017-12-15T00:42:13.860Z,75.00
2017-12-15T00:44:41.847Z,75.30
2017-12-15T00:47:09.323Z,75.20
2017-12-15T00:49:36.809Z,75.10
2017-12-15T00:52:04.330Z,75.10
2017-12-15T00:54:31.847Z,74.80
2017-12-15T00:56:59.359Z,75.40
2017-12-15T00:59:26.851Z,75.30
2017-12-15T01:01:54.349Z,75.00
2017-12-15T01:04:22.662Z,76.10
2017-12-15T01:06:50.154Z,76.10
2017-12-15T01:09:17.634Z,76.00
2017-12-15T01:11:45.140Z,76.20
2017-12-15T01:14:12.697Z,76.40
2017-12-15T01:16:40.187Z,76.60
2017-12-15T01:19:07.679Z,76.10
2017-12-15T01:21:35.185Z,76.30
2017-12-15T01:24:02.670Z,76.80
2017-12-15T01:26:30.187Z,76.90
2017-12-15T01:28:57.676Z,77.20
2017-12-15T01:31:25.190Z,77.10
2017-12-15T01:33:52.678Z,77.10
2017-12-15T01:36:21.599Z,77.70
2017-12-15T01:38:49.085Z,77.30
2017-12-15T01:41:16.608Z,77.80
2017-12-15T01:43:44.854Z,77.50
2017-12-15T01:46:12.375Z,77.40
2017-12-15T01:48:39.854Z,77.30
2017-12-15T01:51:07.354Z,76.50
2017-12-15T01:53:34.870Z,76.40
2017-12-15T01:56:02.467Z,76.00
2017-12-15T01:58:29.950Z,75.80
2017-12-15T02:00:57.464Z,75.90
2017-12-15T02:03:24.975Z,76.70
2017-12-15T02:05:52.530Z,78.10
2017-12-15T02:08:20.054Z,78.00
2017-12-15T02:10:47.571Z,79.80
2017-12-15T02:13:15.067Z,79.20
2017-12-15T02:15:42.591Z,81.30
2017-12-15T02:18:10.072Z,81.70
2017-12-15T02:20:38.318Z,85.20
2017-12-15T02:23:05.915Z,85.00
2017-12-15T02:25:33.403Z,84.90
2017-12-15T02:28:00.926Z,85.30
2017-12-15T02:30:28.521Z,84.90
2017-12-15T02:32:56.047Z,85.50
2017-12-15T02:35:23.601Z,86.00
2017-12-15T02:37:51.094Z,86.00
2017-12-15T02:40:19.374Z,86.50
2017-12-15T02:42:46.902Z,86.60
2017-12-15T02:45:14.393Z,86.70
2017-12-15T02:47:41.901Z,86.50
2017-12-15T02:50:09.447Z,87.20
2017-12-15T02:52:37.699Z,85.90
2017-12-15T02:55:05.212Z,85.90
2017-12-15T02:57:32.724Z,85.50
2017-12-15T03:00:00.209Z,85.20
2017-12-15T03:02:28.550Z,84.00
2017-12-15T03:04:56.115Z,83.90
2017-12-15T03:07:23.706Z,84.70
2017-12-15T03:09:51.191Z,83.90
2017-12-15T03:12:19.466Z,83.80
2017-12-15T03:14:47.714Z,83.40
2017-12-15T03:17:15.239Z,83.30
2017-12-15T03:19:42.735Z,84.20
2017-12-15T03:22:10.273Z,83.80
2017-12-15T03:24:37.892Z,83.90
2017-12-15T03:27:06.142Z,83.90
2017-12-15T03:29:33.666Z,83.40
2017-12-15T03:32:01.836Z,83.30
2017-12-15T03:34:29.348Z,83.30
2017-12-15T03:36:56.892Z,83.30
2017-12-15T03:39:25.177Z,82.40
2017-12-15T03:41:52.686Z,82.40
2017-12-15T03:44:20.946Z,82.10
2017-12-15T03:46:48.484Z,81.70
2017-12-15T03:49:16.011Z,81.00
2017-12-15T03:51:44.259Z,80.50
2017-12-15T03:54:11.779Z,80.50
2017-12-15T03:56:39.306Z,80.90
2017-12-15T03:59:07.553Z,80.70
2017-12-15T04:01:35.081Z,80.60
2017-12-15T04:04:02.564Z,81.30
2017-12-15T04:06:30.079Z,81.20
2017-12-15T04:08:58.334Z,81.90
2017-12-15T04:11:25.868Z,81.80
2017-12-15T04:13:53.390Z,81.80
2017-12-15T04:16:21.635Z,82.90
2017-12-15T04:18:49.113Z,82.90
2017-12-15T04:21:16.658Z,82.40
2017-12-15T04:23:44.127Z,82.60
2017-12-15T04:26:11.623Z,82.80
2017-12-15T04:28:39.157Z,83.00
2017-12-15T04:31:06.741Z,83.20
2017-12-15T04:33:35.069Z,83.20
2017-12-15T04:36:02.550Z,83.10
2017-12-15T04:38:30.075Z,82.50
2017-12-15T04:40:57.567Z,82.00
2017-12-15T04:43:25.069Z,82.80
2017-12-15T04:45:53.352Z,83.40
2017-12-15T04:48:20.922Z,83.40
2017-12-15T04:50:49.167Z,85.10
2017-12-15T04:53:16.776Z,85.00
2017-12-15T04:55:45.091Z,85.70
2017-12-15T04:58:12.567Z,85.70
2017-12-15T05:00:40.089Z,87.50
2017-12-15T05:03:07.579Z,89.60
2017-12-15T05:05:35.089Z,90.10
2017-12-15T05:08:02.627Z,91.00
2017-12-15T05:10:30.122Z,91.20
2017-12-15T05:12:57.599Z,91.20
2017-12-15T05:15:25.886Z,91.70
2017-12-15T05:17:53.395Z,92.40
2017-12-15T05:20:21.095Z,91.80
2017-12-15T05:22:48.628Z,92.00
2017-12-15T05:25:16.123Z,92.50
2017-12-15T05:27:43.634Z,92.00
2017-12-15T05:30:11.150Z,92.60
2017-12-15T05:32:39.470Z,92.30
2017-12-15T05:35:06.963Z,92.30
2017-12-15T05:37:34.522Z,91.70
2017-12-15T05:40:02.207Z,91.30
2017-12-15T05:42:29.716Z,91.20
2017-12-15T05:44:57.250Z,90.90
2017-12-15T05:47:24.779Z,89.80
2017-12-15T05:49:52.267Z,89.80
2017-12-15T05:52:20.558Z,90.00
2017-12-15T05:54:48.079Z,89.90
2017-12-15T05:57:15.566Z,90.50
2017-12-15T05:59:43.081Z,90.60
2017-12-15T06:02:10.562Z,90.70
2017-12-15T06:04:38.074Z,91.30
2017-12-15T06:07:06.367Z,91.10
2017-12-15T06:09:34.721Z,90.70
2017-12-15T06:12:02.242Z,90.60
2017-12-15T06:14:29.774Z,90.50
2017-12-15T06:16:57.342Z,90.50
2017-12-15T06:19:25.595Z,90.90
2017-12-15T06:21:53.284Z,90.90
2017-12-15T06:24:21.595Z,90.30
2017-12-15T06:26:49.129Z,90.30
2017-12-15T06:29:17.394Z,90.70
2017-12-15T06:31:44.934Z,90.60
2017-12-15T06:34:12.475Z,91.10
2017-12-15T06:36:39.978Z,91.80
2017-12-15T06:39:07.461Z,91.30
2017-12-15T06:41:35.754Z,91.80
2017-12-15T06:44:04.043Z,92.20
2017-12-15T06:46:31.643Z,92.10
2017-12-15T06:48:59.196Z,91.50
2017-12-15T06:51:26.696Z,91.60
2017-12-15T06:53:54.204Z,91.20
2017-12-15T06:56:21.718Z,91.20
2017-12-15T06:58:49.218Z,91.10
2017-12-15T07:01:17.502Z,90.20
2017-12-15T07:03:45.012Z,90.20
2017-12-15T07:06:12.531Z,89.30
2017-12-15T07:08:40.063Z,89.30
2017-12-15T07:11:07.647Z,89.50
2017-12-15T07:13:35.150Z,89.00
2017-12-15T07:16:02.636Z,88.00
2017-12-15T07:18:30.260Z,87.60
2017-12-15T07:20:57.746Z,87.40
2017-12-15T07:23:25.229Z,87.80
2017-12-15T07:25:52.755Z,88.00
2017-12-15T07:28:20.418Z,89.00
2017-12-15T07:30:47.942Z,89.40
2017-12-15T07:33:15.526Z,89.40
2017-12-15T07:35:43.890Z,90.20
2017-12-15T07:38:11.378Z,90.20
2017-12-15T07:40:38.898Z,90.60
2017-12-15T07:43:06.388Z,90.50
2017-12-15T07:45:34.686Z,90.80
2017-12-15T07:48:02.219Z,90.70
2017-12-15T07:50:29.711Z,90.80
2017-12-15T07:52:57.198Z,90.60
2017-12-15T07:55:24.719Z,91.30
2017-12-15T07:57:52.981Z,89.70
2017-12-15T08:00:20.512Z,89.60
2017-12-15T08:02:48.026Z,88.40
2017-12-15T08:05:16.321Z,85.00
2017-12-15T08:07:44.734Z,84.50
2017-12-15T08:10:12.258Z,84.50
2017-12-15T08:12:40.559Z,84.00
2017-12-15T08:15:08.098Z,84.00
2017-12-15T08:17:35.602Z,82.80
2017-12-15T08:20:03.088Z,81.90
2017-12-15T08:22:30.635Z,81.70
2017-12-15T08:24:58.118Z,80.00
2017-12-15T08:27:25.670Z,81.00
2017-12-15T08:29:53.146Z,81.00
2017-12-15T08:32:20.682Z,78.50
2017-12-15T08:34:48.168Z,74.00
2017-12-15T08:37:15.726Z,76.70
2017-12-15T08:39:43.255Z,75.70
2017-12-15T08:42:10.733Z,74.40
2017-12-15T08:44:38.224Z,73.70
2017-12-15T08:47:05.745Z,70.60
2017-12-15T08:49:33.246Z,70.50
2017-12-15T08:52:00.777Z,71.00
2017-12-15T08:54:28.264Z,69.50
2017-12-15T08:56:55.829Z,70.70
2017-12-15T08:59:23.379Z,70.50
2017-12-15T09:01:50.876Z,70.60
2017-12-15T09:04:23.231Z,68.50
2017-12-15T09:06:50.777Z,66.60
2017-12-15T09:09:18.266Z,64.70
2017-12-15T09:11:45.828Z,64.80
2017-12-15T09:14:13.355Z,68.60
2017-12-15T09:16:40.859Z,63.80
2017-12-15T09:19:08.375Z,65.00
2017-12-15T09:21:35.854Z,65.40
2017-12-15T09:24:03.374Z,64.30
2017-12-15T09:26:30.996Z,66.90
2017-12-15T09:28:58.475Z,65.10
2017-12-15T09:31:25.954Z,65.60
2017-12-15T09:33:53.473Z,64.80
2017-12-15T09:36:21.124Z,64.80
2017-12-15T09:38:48.606Z,65.40
2017-12-15T09:41:16.191Z,62.50
2017-12-15T09:43:43.690Z,64.00
2017-12-15T09:46:11.177Z,64.10
2017-12-15T09:48:38.710Z,65.60
2017-12-15T09:51:06.209Z,64.30
2017-12-15T09:53:33.737Z,64.00
2017-12-15T09:56:01.280Z,62.90
2017-12-15T09:58:28.768Z,58.90
2017-12-15T10:00:56.290Z,59.50
2017-12-15T10:03:23.785Z,61.90
2017-12-15T10:05:51.270Z,60.10
2017-12-15T10:08:19.555Z,60.30
2017-12-15T10:10:47.850Z,59.50
2017-12-15T10:13:15.398Z,59.50
2017-12-15T10:15:43.659Z,60.00
2017-12-15T10:18:11.311Z,59.90
2017-12-15T10:20:38.789Z,58.70
2017-12-15T10:23:06.290Z,59.60
2017-12-15T10:25:33.933Z,58.60
2017-12-15T10:28:02.179Z,58.30
2017-12-15T10:30:29.707Z,58.20
2017-12-15T10:32:57.199Z,61.60
2017-12-15T10:35:24.787Z,59.50
2017-12-15T10:37:52.336Z,58.90
2017-12-15T10:40:19.819Z,60.10
2017-12-15T10:42:47.420Z,61.00
2017-12-15T10:45:14.951Z,59.20
2017-12-15T10:47:42.434Z,58.40
2017-12-15T10:50:10.698Z,57.30
2017-12-15T10:52:38.344Z,57.40
2017-12-15T10:55:05.999Z,58.30
2017-12-15T10:57:33.570Z,57.30
2017-12-15T11:00:01.064Z,56.40
2017-12-15T11:02:29.342Z,58.70
2017-12-15T11:04:57.599Z,57.20
2017-12-15T11:07:25.126Z,57.10
2017-12-15T11:09:52.654Z,57.40
2017-12-15T11:12:21.121Z,56.30
2017-12-15T11:14:48.617Z,56.10
2017-12-15T11:17:16.139Z,54.10
2017-12-15T11:19:43.719Z,56.70
2017-12-15T11:22:11.194Z,56.30
2017-12-15T11:24:39.486Z,55.60
2017-12-15T11:27:06.977Z,55.70
2017-12-15T11:29:34.453Z,54.80
2017-12-15T11:32:01.977Z,54.10
2017-12-15T11:34:29.484Z,54.10
2017-12-15T11:36:56.960Z,53.30
2017-12-15T11:39:24.478Z,52.80
2017-12-15T11:41:51.990Z,52.10
2017-12-15T11:44:19.532Z,53.20
2017-12-15T11:46:47.018Z,53.70
2017-12-15T11:49:14.503Z,54.00
2017-12-15T11:51:42.784Z,53.30
2017-12-15T11:54:11.507Z,53.50
2017-12-15T11:56:38.993Z,53.40
2017-12-15T11:59:06.530Z,52.30
2017-12-15T12:01:34.028Z,51.80
2017-12-15T12:04:01.536Z,50.40
2017-12-15T12:06:29.794Z,49.40
2017-12-15T12:08:57.320Z,49.40
2017-12-15T12:11:25.310Z,49.30
2017-12-15T12:13:52.814Z,49.80
2017-12-15T12:16:21.075Z,52.80
2017-12-15T12:18:48.562Z,52.70
2017-12-15T12:21:16.865Z,55.30
2017-12-15T12:23:44.355Z,55.30
2017-12-15T12:26:11.865Z,55.80
2017-12-15T12:28:40.183Z,55.80
2017-12-15T12:31:07.718Z,55.00
2017-12-15T12:33:35.251Z,56.10
2017-12-15T12:36:02.757Z,56.10
2017-12-15T12:38:30.270Z,55.00
2017-12-15T12:40:57.791Z,54.20
2017-12-15T12:43:25.278Z,54.10
2017-12-15T12:45:52.795Z,55.10
2017-12-15T12:48:21.034Z,56.00
2017-12-15T12:50:48.523Z,55.90
2017-12-15T12:53:16.820Z,57.90
2017-12-15T12:55:44.301Z,57.90
2017-12-15T12:58:11.834Z,58.10
2017-12-15T13:00:40.191Z,56.80
2017-12-15T13:03:07.697Z,56.80
2017-12-15T13:05:35.197Z,56.30
2017-12-15T13:08:02.715Z,55.60
2017-12-15T13:10:31.631Z,56.00
2017-12-15T13:12:59.118Z,55.30
2017-12-15T13:15:26.658Z,55.30
2017-12-15T13:17:54.156Z,56.00
2017-12-15T13:20:21.628Z,55.90
2017-12-15T13:22:49.139Z,56.30
2017-12-15T13:25:16.717Z,56.90
2017-12-15T13:27:44.252Z,57.50
2017-12-15T13:30:12.547Z,58.50
2017-12-15T13:32:40.170Z,58.30
2017-12-15T13:35:07.721Z,60.80
2017-12-15T13:37:35.250Z,64.00
2017-12-15T13:40:02.737Z,63.70
2017-12-15T13:42:30.296Z,66.10
2017-12-15T13:44:57.804Z,65.70
2017-12-15T13:47:26.064Z,67.30
2017-12-15T13:49:53.590Z,67.30
2017-12-15T13:52:21.112Z,69.10
2017-12-15T13:54:49.389Z,72.10
2017-12-15T13:57:16.954Z,72.00
2017-12-15T13:59:44.486Z,74.00
2017-12-15T14:02:12.011Z,74.60
2017-12-15T14:04:39.501Z,75.60
2017-12-15T14:07:07.018Z,76.70
2017-12-15T14:09:35.282Z,76.10
2017-12-15T14:12:02.888Z,76.00
2017-12-15T14:14:30.382Z,76.70
2017-12-15T14:16:57.910Z,74.10
2017-12-15T14:19:25.386Z,74.80
2017-12-15T14:21:52.907Z,73.70
2017-12-15T14:24:21.252Z,73.20
2017-12-15T14:26:49.152Z,73.10
2017-12-15T14:29:16.649Z,73.80
2017-12-15T14:31:44.187Z,73.10
2017-12-15T14:34:12.437Z,73.30
2017-12-15T14:36:39.975Z,73.10
2017-12-15T14:39:07.460Z,72.30
2017-12-15T14:41:34.969Z,71.70
2017-12-15T14:44:03.642Z,70.10
2017-12-15T14:46:31.274Z,70.20
2017-12-15T14:48:59.130Z,70.60
2017-12-15T14:51:26.660Z,71.10
2017-12-15T14:53:54.947Z,70.10
2017-12-15T14:56:22.451Z,70.00
2017-12-15T14:58:49.968Z,71.30
2017-12-15T15:01:18.256Z,72.90
2017-12-15T15:03:45.794Z,72.80
2017-12-15T15:06:13.279Z,72.10
2017-12-15T15:08:41.572Z,72.60
2017-12-15T15:11:09.111Z,72.60
2017-12-15T15:13:37.366Z,74.20
2017-12-15T15:16:04.908Z,74.20
2017-12-15T15:18:32.429Z,74.50
2017-12-15T15:21:00.778Z,75.00
2017-12-15T15:23:28.431Z,74.80
2017-12-15T15:25:55.926Z,74.50
2017-12-15T15:28:24.231Z,76.10
2017-12-15T15:30:51.719Z,75.20
2017-12-15T15:33:19.247Z,76.00
2017-12-15T15:35:46.770Z,76.50
2017-12-15T15:38:15.218Z,76.40
2017-12-15T15:40:42.706Z,76.80
2017-12-15T15:43:10.232Z,77.70
2017-12-15T15:45:37.720Z,77.10
2017-12-15T15:48:05.210Z,77.60
2017-12-15T15:50:32.727Z,77.80
2017-12-15T15:53:00.246Z,78.10
2017-12-15T15:55:27.810Z,78.30
2017-12-15T15:57:55.407Z,78.70
2017-12-15T16:00:23.727Z,78.80
2017-12-15T16:02:51.235Z,78.70
2017-12-15T16:05:18.766Z,79.20
2017-12-15T16:07:46.255Z,79.40
2017-12-15T16:10:13.786Z,79.70
2017-12-15T16:12:41.299Z,79.80
2017-12-15T16:15:09.575Z,79.70
2017-12-15T16:17:37.911Z,79.70
2017-12-15T16:20:05.425Z,79.70
2017-12-15T16:22:33.688Z,80.50
2017-12-15T16:25:01.199Z,80.60
2017-12-15T16:27:28.686Z,80.60
2017-12-15T16:29:56.220Z,80.80
2017-12-15T16:32:24.561Z,80.30
2017-12-15T16:34:52.049Z,80.80
2017-12-15T16:37:19.549Z,81.10
2017-12-15T16:39:47.089Z,81.40
2017-12-15T16:42:14.640Z,82.00
2017-12-15T16:44:42.114Z,82.10
2017-12-15T16:47:11.078Z,81.80
2017-12-15T16:49:39.383Z,82.70
2017-12-15T16:52:06.878Z,82.60
2017-12-15T16:54:34.376Z,82.50
2017-12-15T16:57:01.921Z,81.90
2017-12-15T16:59:29.415Z,82.10
2017-12-15T17:01:57.692Z,82.70
2017-12-15T17:04:25.194Z,82.60
2017-12-15T17:06:52.689Z,83.10
2017-12-15T17:09:20.220Z,83.50
2017-12-15T17:11:47.831Z,83.70
2017-12-15T17:14:15.379Z,83.80
2017-12-15T17:16:42.870Z,83.90
2017-12-15T17:19:10.387Z,84.60
2017-12-15T17:21:37.892Z,85.30
2017-12-15T17:24:05.387Z,85.40
2017-12-15T17:26:32.935Z,85.50
2017-12-15T17:29:01.195Z,86.40
2017-12-15T17:31:28.800Z,86.00
2017-12-15T17:33:56.334Z,86.50
2017-12-15T17:36:23.838Z,86.20
2017-12-15T17:38:51.373Z,85.40
2017-12-15T17:41:19.632Z,85.30
2017-12-15T17:43:47.165Z,85.20
2017-12-15T17:46:14.686Z,88.30
2017-12-15T17:48:42.949Z,89.90
2017-12-15T17:51:10.449Z,89.80
2017-12-15T17:53:37.965Z,90.40
2017-12-15T17:56:05.443Z,89.90
2017-12-15T17:58:33.003Z,89.20
2017-12-15T18:01:00.570Z,88.60
2017-12-15T18:03:28.823Z,87.00
2017-12-15T18:05:56.357Z,86.70
2017-12-15T18:08:23.855Z,86.00
2017-12-15T18:10:51.367Z,88.30
2017-12-15T18:13:18.854Z,89.00
2017-12-15T18:15:46.862Z,89.00
2017-12-15T18:18:14.354Z,88.20
2017-12-15T18:20:42.647Z,86.40
2017-12-15T18:23:10.123Z,86.20
2017-12-15T18:25:37.656Z,87.30
2017-12-15T18:28:05.897Z,86.40
2017-12-15T18:30:33.377Z,86.20
2017-12-15T18:33:00.890Z,85.50
2017-12-15T18:35:28.408Z,85.80
2017-12-15T18:37:55.912Z,84.40
2017-12-15T18:40:23.398Z,83.40
2017-12-15T18:42:50.942Z,82.50
2017-12-15T18:45:18.425Z,81.90
2017-12-15T18:47:45.901Z,80.40
2017-12-15T18:50:13.430Z,80.60
2017-12-15T18:52:40.919Z,81.50
2017-12-15T18:55:08.508Z,81.90
2017-12-15T18:57:36.050Z,81.60
2017-12-15T19:00:03.626Z,81.70
2017-12-15T19:02:31.176Z,82.10
2017-12-15T19:04:58.662Z,82.70
2017-12-15T19:07:26.171Z,82.10
2017-12-15T19:09:53.700Z,82.40
2017-12-15T19:12:21.190Z,82.80
2017-12-15T19:14:48.714Z,82.70
2017-12-15T19:17:16.200Z,82.30
2017-12-15T19:19:44.486Z,82.10
2017-12-15T19:22:12.743Z,81.80
2017-12-15T19:24:40.230Z,81.70
2017-12-15T19:27:08.518Z,82.20
2017-12-15T19:29:36.028Z,82.10
2017-12-15T19:32:03.514Z,83.10
2017-12-15T19:34:31.037Z,83.30
2017-12-15T19:36:58.519Z,84.30
2017-12-15T19:39:26.044Z,84.40
2017-12-15T19:41:53.615Z,85.00
2017-12-15T19:44:21.107Z,84.90
2017-12-15T19:46:48.622Z,83.70
2017-12-15T19:49:16.873Z,84.60
2017-12-15T19:51:44.367Z,84.70
2017-12-15T19:54:12.682Z,85.50
2017-12-15T19:56:40.159Z,85.30
2017-12-15T19:59:07.650Z,85.30
2017-12-15T20:01:35.198Z,86.10
2017-12-15T20:04:02.678Z,85.20
2017-12-15T20:06:30.156Z,84.40
2017-12-15T20:08:58.426Z,82.20
2017-12-15T20:11:25.959Z,82.20
2017-12-15T20:13:53.450Z,82.00
2017-12-15T20:16:21.707Z,83.70
2017-12-15T20:18:49.236Z,82.90
2017-12-15T20:21:16.779Z,82.90
2017-12-15T20:23:44.317Z,82.90
2017-12-15T20:26:11.826Z,83.30
2017-12-15T20:28:39.342Z,83.10
2017-12-15T20:31:06.831Z,84.30
2017-12-15T20:33:35.129Z,85.90
2017-12-15T20:36:02.631Z,85.60
2017-12-15T20:38:30.155Z,86.20
2017-12-15T20:40:57.698Z,86.10
2017-12-15T20:43:25.947Z,85.20
2017-12-15T20:45:53.471Z,85.00
2017-12-15T20:48:21.005Z,84.60
2017-12-15T20:50:49.262Z,83.80
2017-12-15T20:53:16.782Z,83.80
2017-12-15T20:55:44.294Z,84.20
2017-12-15T20:58:12.555Z,85.80
2017-12-15T21:00:40.072Z,85.40
2017-12-15T21:03:07.559Z,85.30
2017-12-15T21:05:35.075Z,85.40
2017-12-15T21:08:03.318Z,84.30
2017-12-15T21:10:30.840Z,84.20
2017-12-15T21:12:58.329Z,83.80
2017-12-15T21:15:25.846Z,83.30
2017-12-15T21:17:54.147Z,83.40
2017-12-15T21:20:21.637Z,83.40
2017-12-15T21:22:49.157Z,83.60
2017-12-15T21:25:17.420Z,83.00
2017-12-15T21:27:44.951Z,82.90
2017-12-15T21:30:13.530Z,82.90
2017-12-15T21:32:41.062Z,82.10
2017-12-15T21:35:09.428Z,82.50
2017-12-15T21:37:37.723Z,83.80
2017-12-15T21:40:06.031Z,83.70
2017-12-15T21:42:33.538Z,83.80
2017-12-15T21:45:01.049Z,83.30
2017-12-15T21:47:28.581Z,83.60
2017-12-15T21:49:56.854Z,82.80
2017-12-15T21:52:24.364Z,82.70
2017-12-15T21:54:51.908Z,82.80
2017-12-15T21:57:19.432Z,82.80
2017-12-15T21:59:46.990Z,83.60
2017-12-15T22:02:14.476Z,83.60
2017-12-15T22:04:42.743Z,83.70
2017-12-15T22:07:10.304Z,83.70
2017-12-15T22:09:37.796Z,84.20
2017-12-15T22:12:06.127Z,85.10
2017-12-15T22:14:33.711Z,85.00
2017-12-15T22:17:01.258Z,85.50
2017-12-15T22:19:28.743Z,86.70
2017-12-15T22:21:56.282Z,88.50
2017-12-15T22:24:23.865Z,89.00
2017-12-15T22:26:51.346Z,88.50
2017-12-15T22:29:19.628Z,87.70
2017-12-15T22:31:47.921Z,86.50
2017-12-15T22:34:16.167Z,85.60
2017-12-15T22:36:43.644Z,85.40
2017-12-15T22:39:11.175Z,85.50
2017-12-15T22:41:38.703Z,84.30
2017-12-15T22:44:06.201Z,83.70
2017-12-15T22:46:33.703Z,83.70
2017-12-15T22:49:01.962Z,83.80
2017-12-15T22:51:29.562Z,83.90
2017-12-15T22:53:57.837Z,83.70
2017-12-15T22:56:26.118Z,83.90
2017-12-15T22:58:54.414Z,83.90
2017-12-15T23:01:21.913Z,83.80
2017-12-15T23:03:49.431Z,83.40
2017-12-15T23:06:17.723Z,82.60
2017-12-15T23:08:45.274Z,82.60
2017-12-15T23:11:13.530Z,82.70
2017-12-15T23:13:41.054Z,82.60
2017-12-15T23:16:08.567Z,82.80
2017-12-15T23:18:36.071Z,83.40
2017-12-15T23:21:03.581Z,84.60
2017-12-15T23:23:31.089Z,85.20
2017-12-15T23:25:58.641Z,84.60
2017-12-15T23:28:26.908Z,83.90
2017-12-15T23:30:55.171Z,83.80
2017-12-15T23:33:22.683Z,83.80
2017-12-15T23:35:50.173Z,82.60
2017-12-15T23:38:17.710Z,81.10
2017-12-15T23:40:45.817Z,84.50
2017-12-15T23:43:13.358Z,84.60
2017-12-15T23:45:40.843Z,84.20
2017-12-15T23:48:08.336Z,83.90
2017-12-15T23:50:35.875Z,84.10
2017-12-15T23:53:03.392Z,84.90
2017-12-15T23:55:53.507Z,84.80
2017-12-15T23:58:21.001Z,84.10
